sensor_id;sensor_type;location;lat;lon;timestamp;P1;durP1;ratioP1;P2;durP2;ratioP2
13250;SDS011;6692;50.710;7.180;2022-08-01T00:00:10;346.60;;;333.90;;
13250;SDS011;6692;50.710;7.180;2022-08-01T00:04:26;374.57;;;360.73;;
13250;SDS011;6692;50.710;7.180;2022-08-01T00:06:26;346.57;;;333.73;;
13250;SDS011;6692;50.710;7.180;2022-08-01T00:08:28;343.03;;;330.37;;
13250;SDS011;6692;50.710;7.180;2022-08-01T00:10:28;336.13;;;323.77;;
13250;SDS011;6692;50.710;7.180;2022-08-01T00:12:30;351.13;;;338.33;;
13250;SDS011;6692;50.710;7.180;2022-08-01T00:14:31;339.37;;;327.13;;
13250;SDS011;6692;50.710;7.180;2022-08-01T00:16:32;350.53;;;337.67;;
13250;SDS011;6692;50.710;7.180;2022-08-01T00:18:33;351.67;;;338.67;;
13250;SDS011;6692;50.710;7.180;2022-08-01T00:20:34;330.27;;;318.33;;
13250;SDS011;6692;50.710;7.180;2022-08-01T00:22:34;365.90;;;352.50;;
13250;SDS011;6692;50.710;7.180;2022-08-01T00:24:35;344.60;;;331.90;;
13250;SDS011;6692;50.710;7.180;2022-08-01T00:26:35;355.70;;;342.57;;
13250;SDS011;6692;50.710;7.180;2022-08-01T00:28:36;354.57;;;341.37;;
13250;SDS011;6692;50.710;7.180;2022-08-01T00:30:37;339.83;;;327.40;;
13250;SDS011;6692;50.710;7.180;2022-08-01T00:32:38;364.37;;;350.93;;
13250;SDS011;6692;50.710;7.180;2022-08-01T00:34:39;342.90;;;330.33;;
13250;SDS011;6692;50.710;7.180;2022-08-01T00:36:39;341.43;;;329.00;;
13250;SDS011;6692;50.710;7.180;2022-08-01T00:38:40;403.13;;;387.93;;
13250;SDS011;6692;50.710;7.180;2022-08-01T00:40:41;355.33;;;342.37;;
13250;SDS011;6692;50.710;7.180;2022-08-01T00:42:41;398.57;;;383.57;;
13250;SDS011;6692;50.710;7.180;2022-08-01T00:44:42;387.83;;;373.17;;
13250;SDS011;6692;50.710;7.180;2022-08-01T00:46:43;373.37;;;359.37;;
13250;SDS011;6692;50.710;7.180;2022-08-01T00:48:43;400.67;;;385.73;;
13250;SDS011;6692;50.710;7.180;2022-08-01T00:50:44;387.80;;;373.00;;
13250;SDS011;6692;50.710;7.180;2022-08-01T00:52:44;448.67;;;431.37;;
13250;SDS011;6692;50.710;7.180;2022-08-01T00:54:45;390.47;;;375.93;;
13250;SDS011;6692;50.710;7.180;2022-08-01T00:56:46;403.13;;;387.93;;
13250;SDS011;6692;50.710;7.180;2022-08-01T00:58:47;393.30;;;378.50;;
13250;SDS011;6692;50.710;7.180;2022-08-01T01:00:48;383.37;;;369.00;;
13250;SDS011;6692;50.710;7.180;2022-08-01T01:02:48;413.33;;;397.57;;
13250;SDS011;6692;50.710;7.180;2022-08-01T01:04:49;411.17;;;395.67;;
13250;SDS011;6692;50.710;7.180;2022-08-01T01:09:15;419.27;;;403.13;;
13250;SDS011;6692;50.710;7.180;2022-08-01T01:11:28;441.33;;;424.13;;
13250;SDS011;6692;50.710;7.180;2022-08-01T01:13:46;435.83;;;419.07;;
13250;SDS011;6692;50.710;7.180;2022-08-01T01:15:50;473.87;;;455.03;;
13250;SDS011;6692;50.710;7.180;2022-08-01T01:17:51;429.20;;;412.40;;
13250;SDS011;6692;50.710;7.180;2022-08-01T01:19:50;449.40;;;431.83;;
13250;SDS011;6692;50.710;7.180;2022-08-01T01:21:57;496.67;;;476.83;;
13250;SDS011;6692;50.710;7.180;2022-08-01T01:24:01;432.17;;;415.33;;
13250;SDS011;6692;50.710;7.180;2022-08-01T01:26:09;447.43;;;429.93;;
13250;SDS011;6692;50.710;7.180;2022-08-01T01:28:10;528.27;;;506.50;;
13250;SDS011;6692;50.710;7.180;2022-08-01T01:30:10;466.73;;;448.10;;
13250;SDS011;6692;50.710;7.180;2022-08-01T01:32:14;528.00;;;506.00;;
13250;SDS011;6692;50.710;7.180;2022-08-01T01:34:14;465.63;;;447.30;;
13250;SDS011;6692;50.710;7.180;2022-08-01T01:36:14;502.17;;;481.73;;
13250;SDS011;6692;50.710;7.180;2022-08-01T01:38:16;509.13;;;488.40;;
13250;SDS011;6692;50.710;7.180;2022-08-01T01:40:15;560.93;;;537.27;;
13250;SDS011;6692;50.710;7.180;2022-08-01T01:42:16;494.67;;;474.40;;
13250;SDS011;6692;50.710;7.180;2022-08-01T01:44:16;495.20;;;475.23;;
13250;SDS011;6692;50.710;7.180;2022-08-01T01:46:17;518.37;;;497.17;;
13250;SDS011;6692;50.710;7.180;2022-08-01T01:48:18;483.77;;;464.43;;
13250;SDS011;6692;50.710;7.180;2022-08-01T01:50:19;501.60;;;481.60;;
13250;SDS011;6692;50.710;7.180;2022-08-01T01:52:20;509.80;;;489.17;;
13250;SDS011;6692;50.710;7.180;2022-08-01T01:54:21;569.50;;;545.07;;
13250;SDS011;6692;50.710;7.180;2022-08-01T01:56:21;522.33;;;500.90;;
13250;SDS011;6692;50.710;7.180;2022-08-01T01:58:22;558.60;;;535.20;;
13250;SDS011;6692;50.710;7.180;2022-08-01T02:00:22;543.47;;;520.47;;
13250;SDS011;6692;50.710;7.180;2022-08-01T02:02:23;584.67;;;559.33;;
13250;SDS011;6692;50.710;7.180;2022-08-01T02:04:24;580.53;;;555.67;;
13250;SDS011;6692;50.710;7.180;2022-08-01T02:06:24;587.23;;;561.70;;
13250;SDS011;6692;50.710;7.180;2022-08-01T02:08:25;600.80;;;574.73;;
13250;SDS011;6692;50.710;7.180;2022-08-01T02:10:26;568.93;;;544.70;;
13250;SDS011;6692;50.710;7.180;2022-08-01T02:12:27;612.17;;;585.10;;
13250;SDS011;6692;50.710;7.180;2022-08-01T02:14:27;569.17;;;544.67;;
13250;SDS011;6692;50.710;7.180;2022-08-01T02:16:29;588.17;;;562.40;;
13250;SDS011;6692;50.710;7.180;2022-08-01T02:18:29;688.53;;;655.87;;
13250;SDS011;6692;50.710;7.180;2022-08-01T02:20:29;611.67;;;584.30;;
13250;SDS011;6692;50.710;7.180;2022-08-01T02:22:31;594.17;;;568.03;;
13250;SDS011;6692;50.710;7.180;2022-08-01T02:24:36;588.50;;;563.17;;
13250;SDS011;6692;50.710;7.180;2022-08-01T02:26:35;584.67;;;559.33;;
13250;SDS011;6692;50.710;7.180;2022-08-01T02:28:38;601.97;;;575.80;;
13250;SDS011;6692;50.710;7.180;2022-08-01T02:30:38;605.17;;;578.43;;
13250;SDS011;6692;50.710;7.180;2022-08-01T02:32:38;612.80;;;585.57;;
13250;SDS011;6692;50.710;7.180;2022-08-01T02:34:38;595.53;;;569.40;;
13250;SDS011;6692;50.710;7.180;2022-08-01T02:36:39;586.87;;;561.43;;
13250;SDS011;6692;50.710;7.180;2022-08-01T02:38:41;637.87;;;608.87;;
13250;SDS011;6692;50.710;7.180;2022-08-01T02:40:42;606.87;;;580.67;;
13250;SDS011;6692;50.710;7.180;2022-08-01T02:42:43;595.70;;;569.50;;
13250;SDS011;6692;50.710;7.180;2022-08-01T02:44:42;590.87;;;565.27;;
13250;SDS011;6692;50.710;7.180;2022-08-01T02:46:46;596.77;;;570.73;;
13250;SDS011;6692;50.710;7.180;2022-08-01T02:48:45;591.07;;;565.20;;
13250;SDS011;6692;50.710;7.180;2022-08-01T02:50:47;603.17;;;576.37;;
13250;SDS011;6692;50.710;7.180;2022-08-01T02:52:48;591.00;;;565.43;;
13250;SDS011;6692;50.710;7.180;2022-08-01T02:54:48;584.87;;;559.60;;
13250;SDS011;6692;50.710;7.180;2022-08-01T02:56:48;597.90;;;571.73;;
13250;SDS011;6692;50.710;7.180;2022-08-01T02:58:48;588.40;;;562.57;;
13250;SDS011;6692;50.710;7.180;2022-08-01T03:00:49;605.90;;;579.40;;
13250;SDS011;6692;50.710;7.180;2022-08-01T03:02:50;626.20;;;598.30;;
13250;SDS011;6692;50.710;7.180;2022-08-01T03:04:50;651.70;;;621.03;;
13250;SDS011;6692;50.710;7.180;2022-08-01T03:06:52;623.00;;;595.13;;
13250;SDS011;6692;50.710;7.180;2022-08-01T03:08:52;604.47;;;577.80;;
13250;SDS011;6692;50.710;7.180;2022-08-01T03:10:52;581.73;;;556.70;;
13250;SDS011;6692;50.710;7.180;2022-08-01T03:12:53;592.67;;;566.97;;
13250;SDS011;6692;50.710;7.180;2022-08-01T03:14:54;596.43;;;570.37;;
13250;SDS011;6692;50.710;7.180;2022-08-01T03:16:54;610.70;;;583.33;;
13250;SDS011;6692;50.710;7.180;2022-08-01T03:18:55;605.53;;;578.83;;
13250;SDS011;6692;50.710;7.180;2022-08-01T03:20:55;600.90;;;574.33;;
13250;SDS011;6692;50.710;7.180;2022-08-01T03:22:56;595.33;;;568.97;;
13250;SDS011;6692;50.710;7.180;2022-08-01T03:24:57;620.20;;;592.73;;
13250;SDS011;6692;50.710;7.180;2022-08-01T03:26:58;618.83;;;591.37;;
13250;SDS011;6692;50.710;7.180;2022-08-01T03:28:59;605.53;;;578.93;;
13250;SDS011;6692;50.710;7.180;2022-08-01T03:31:00;605.13;;;578.53;;
13250;SDS011;6692;50.710;7.180;2022-08-01T03:33:01;612.40;;;585.27;;
13250;SDS011;6692;50.710;7.180;2022-08-01T03:35:01;612.23;;;585.33;;
13250;SDS011;6692;50.710;7.180;2022-08-01T03:37:03;595.03;;;569.07;;
13250;SDS011;6692;50.710;7.180;2022-08-01T03:39:03;596.00;;;570.00;;
13250;SDS011;6692;50.710;7.180;2022-08-01T03:41:07;614.60;;;587.27;;
13250;SDS011;6692;50.710;7.180;2022-08-01T03:43:07;595.27;;;569.27;;
13250;SDS011;6692;50.710;7.180;2022-08-01T03:45:08;602.53;;;576.37;;
13250;SDS011;6692;50.710;7.180;2022-08-01T03:47:10;601.80;;;575.40;;
13250;SDS011;6692;50.710;7.180;2022-08-01T03:49:14;618.47;;;591.40;;
13250;SDS011;6692;50.710;7.180;2022-08-01T03:51:14;598.97;;;572.50;;
13250;SDS011;6692;50.710;7.180;2022-08-01T03:53:15;588.70;;;563.20;;
13250;SDS011;6692;50.710;7.180;2022-08-01T03:55:15;591.83;;;565.90;;
13250;SDS011;6692;50.710;7.180;2022-08-01T03:57:16;578.87;;;553.77;;
13250;SDS011;6692;50.710;7.180;2022-08-01T03:59:17;600.87;;;574.30;;
13250;SDS011;6692;50.710;7.180;2022-08-01T04:01:18;598.27;;;572.10;;
13250;SDS011;6692;50.710;7.180;2022-08-01T04:03:18;599.30;;;573.20;;
13250;SDS011;6692;50.710;7.180;2022-08-01T04:05:19;631.07;;;603.03;;
13250;SDS011;6692;50.710;7.180;2022-08-01T04:07:24;605.17;;;578.63;;
13250;SDS011;6692;50.710;7.180;2022-08-01T04:09:24;590.87;;;565.43;;
13250;SDS011;6692;50.710;7.180;2022-08-01T04:11:26;612.60;;;585.40;;
13250;SDS011;6692;50.710;7.180;2022-08-01T04:13:25;597.43;;;570.90;;
13250;SDS011;6692;50.710;7.180;2022-08-01T04:15:26;572.53;;;548.00;;
13250;SDS011;6692;50.710;7.180;2022-08-01T04:17:27;577.00;;;552.07;;
13250;SDS011;6692;50.710;7.180;2022-08-01T04:19:27;543.63;;;520.97;;
13250;SDS011;6692;50.710;7.180;2022-08-01T04:21:28;559.10;;;535.30;;
13250;SDS011;6692;50.710;7.180;2022-08-01T04:23:29;599.20;;;573.13;;
13250;SDS011;6692;50.710;7.180;2022-08-01T04:25:32;558.80;;;535.00;;
13250;SDS011;6692;50.710;7.180;2022-08-01T04:27:32;558.13;;;534.67;;
13250;SDS011;6692;50.710;7.180;2022-08-01T04:29:32;564.40;;;540.53;;
13250;SDS011;6692;50.710;7.180;2022-08-01T04:31:33;571.13;;;546.87;;
13250;SDS011;6692;50.710;7.180;2022-08-01T04:33:33;558.03;;;534.37;;
13250;SDS011;6692;50.710;7.180;2022-08-01T04:35:34;576.70;;;551.93;;
13250;SDS011;6692;50.710;7.180;2022-08-01T04:37:35;571.70;;;547.20;;
13250;SDS011;6692;50.710;7.180;2022-08-01T04:39:36;567.87;;;543.90;;
13250;SDS011;6692;50.710;7.180;2022-08-01T04:41:37;566.93;;;542.83;;
13250;SDS011;6692;50.710;7.180;2022-08-01T04:43:37;562.40;;;538.43;;
13250;SDS011;6692;50.710;7.180;2022-08-01T04:45:38;562.03;;;538.03;;
13250;SDS011;6692;50.710;7.180;2022-08-01T04:47:40;577.30;;;552.53;;
13250;SDS011;6692;50.710;7.180;2022-08-01T04:49:41;564.17;;;540.53;;
13250;SDS011;6692;50.710;7.180;2022-08-01T04:53:51;535.67;;;513.23;;
13250;SDS011;6692;50.710;7.180;2022-08-01T04:55:52;573.97;;;549.60;;
13250;SDS011;6692;50.710;7.180;2022-08-01T04:57:53;571.83;;;547.27;;
13250;SDS011;6692;50.710;7.180;2022-08-01T04:59:54;573.23;;;548.80;;
13250;SDS011;6692;50.710;7.180;2022-08-01T05:01:55;567.90;;;543.80;;
13250;SDS011;6692;50.710;7.180;2022-08-01T05:03:55;568.47;;;544.43;;
13250;SDS011;6692;50.710;7.180;2022-08-01T05:05:57;569.13;;;544.93;;
13250;SDS011;6692;50.710;7.180;2022-08-01T05:07:57;572.03;;;547.47;;
13250;SDS011;6692;50.710;7.180;2022-08-01T05:09:58;551.43;;;528.07;;
13250;SDS011;6692;50.710;7.180;2022-08-01T05:11:59;574.90;;;550.13;;
13250;SDS011;6692;50.710;7.180;2022-08-01T05:14:00;567.17;;;543.13;;
13250;SDS011;6692;50.710;7.180;2022-08-01T05:16:01;564.17;;;540.20;;
13250;SDS011;6692;50.710;7.180;2022-08-01T05:18:03;562.03;;;538.13;;
13250;SDS011;6692;50.710;7.180;2022-08-01T05:20:05;566.83;;;542.93;;
13250;SDS011;6692;50.710;7.180;2022-08-01T05:22:07;567.90;;;543.57;;
13250;SDS011;6692;50.710;7.180;2022-08-01T05:24:07;589.73;;;564.33;;
13250;SDS011;6692;50.710;7.180;2022-08-01T05:26:07;584.57;;;559.20;;
13250;SDS011;6692;50.710;7.180;2022-08-01T05:28:08;570.73;;;546.30;;
13250;SDS011;6692;50.710;7.180;2022-08-01T05:30:09;585.17;;;559.90;;
13250;SDS011;6692;50.710;7.180;2022-08-01T05:32:11;574.90;;;550.10;;
13250;SDS011;6692;50.710;7.180;2022-08-01T05:34:11;568.70;;;544.47;;
13250;SDS011;6692;50.710;7.180;2022-08-01T05:36:12;584.27;;;559.37;;
13250;SDS011;6692;50.710;7.180;2022-08-01T05:38:12;579.77;;;554.73;;
13250;SDS011;6692;50.710;7.180;2022-08-01T05:40:13;597.97;;;572.13;;
13250;SDS011;6692;50.710;7.180;2022-08-01T05:42:14;608.60;;;581.77;;
13250;SDS011;6692;50.710;7.180;2022-08-01T05:44:14;587.47;;;561.93;;
13250;SDS011;6692;50.710;7.180;2022-08-01T05:46:16;582.13;;;557.20;;
13250;SDS011;6692;50.710;7.180;2022-08-01T05:48:17;581.77;;;556.67;;
13250;SDS011;6692;50.710;7.180;2022-08-01T05:50:18;583.53;;;558.60;;
13250;SDS011;6692;50.710;7.180;2022-08-01T05:52:19;593.77;;;568.27;;
13250;SDS011;6692;50.710;7.180;2022-08-01T05:54:20;584.53;;;559.00;;
13250;SDS011;6692;50.710;7.180;2022-08-01T05:56:20;580.73;;;555.67;;
13250;SDS011;6692;50.710;7.180;2022-08-01T05:58:21;589.37;;;563.97;;
13250;SDS011;6692;50.710;7.180;2022-08-01T06:00:21;568.47;;;544.03;;
13250;SDS011;6692;50.710;7.180;2022-08-01T06:02:23;572.60;;;548.07;;
13250;SDS011;6692;50.710;7.180;2022-08-01T06:04:23;630.70;;;602.17;;
13250;SDS011;6692;50.710;7.180;2022-08-01T06:06:24;598.10;;;571.73;;
13250;SDS011;6692;50.710;7.180;2022-08-01T06:08:26;582.10;;;557.07;;
13250;SDS011;6692;50.710;7.180;2022-08-01T06:10:27;594.90;;;568.57;;
13250;SDS011;6692;50.710;7.180;2022-08-01T06:12:27;623.40;;;595.50;;
13250;SDS011;6692;50.710;7.180;2022-08-01T06:14:28;584.50;;;558.90;;
13250;SDS011;6692;50.710;7.180;2022-08-01T06:16:29;612.83;;;585.93;;
13250;SDS011;6692;50.710;7.180;2022-08-01T06:18:30;616.13;;;588.63;;
13250;SDS011;6692;50.710;7.180;2022-08-01T06:20:30;619.10;;;591.43;;
13250;SDS011;6692;50.710;7.180;2022-08-01T06:22:32;601.83;;;575.23;;
13250;SDS011;6692;50.710;7.180;2022-08-01T06:24:33;608.17;;;580.67;;
13250;SDS011;6692;50.710;7.180;2022-08-01T06:26:34;621.67;;;594.00;;
13250;SDS011;6692;50.710;7.180;2022-08-01T06:28:35;611.50;;;584.30;;
13250;SDS011;6692;50.710;7.180;2022-08-01T06:30:36;620.13;;;592.30;;
13250;SDS011;6692;50.710;7.180;2022-08-01T06:32:36;600.73;;;574.47;;
13250;SDS011;6692;50.710;7.180;2022-08-01T06:34:37;603.87;;;577.57;;
13250;SDS011;6692;50.710;7.180;2022-08-01T06:36:38;631.50;;;603.27;;
13250;SDS011;6692;50.710;7.180;2022-08-01T06:38:39;627.97;;;599.83;;
13250;SDS011;6692;50.710;7.180;2022-08-01T06:40:40;590.33;;;564.47;;
13250;SDS011;6692;50.710;7.180;2022-08-01T06:42:41;609.27;;;582.13;;
13250;SDS011;6692;50.710;7.180;2022-08-01T06:44:42;585.57;;;560.00;;
13250;SDS011;6692;50.710;7.180;2022-08-01T06:46:44;605.47;;;578.90;;
13250;SDS011;6692;50.710;7.180;2022-08-01T06:48:44;574.17;;;549.37;;
13250;SDS011;6692;50.710;7.180;2022-08-01T06:50:45;598.13;;;572.03;;
13250;SDS011;6692;50.710;7.180;2022-08-01T06:52:46;617.20;;;589.97;;
13250;SDS011;6692;50.710;7.180;2022-08-01T06:54:46;592.33;;;566.60;;
13250;SDS011;6692;50.710;7.180;2022-08-01T06:56:47;562.40;;;538.03;;
13250;SDS011;6692;50.710;7.180;2022-08-01T06:58:49;570.53;;;545.87;;
13250;SDS011;6692;50.710;7.180;2022-08-01T07:00:50;568.57;;;543.87;;
13250;SDS011;6692;50.710;7.180;2022-08-01T07:02:51;591.03;;;564.83;;
13250;SDS011;6692;50.710;7.180;2022-08-01T07:04:51;577.80;;;552.63;;
13250;SDS011;6692;50.710;7.180;2022-08-01T07:06:52;556.83;;;532.93;;
13250;SDS011;6692;50.710;7.180;2022-08-01T07:08:53;580.97;;;555.47;;
13250;SDS011;6692;50.710;7.180;2022-08-01T07:10:54;576.13;;;550.73;;
13250;SDS011;6692;50.710;7.180;2022-08-01T07:12:54;578.30;;;552.73;;
13250;SDS011;6692;50.710;7.180;2022-08-01T07:14:56;571.57;;;547.13;;
13250;SDS011;6692;50.710;7.180;2022-08-01T07:16:57;577.37;;;552.60;;
13250;SDS011;6692;50.710;7.180;2022-08-01T07:18:58;571.93;;;547.17;;
13250;SDS011;6692;50.710;7.180;2022-08-01T07:20:58;552.70;;;529.27;;
13250;SDS011;6692;50.710;7.180;2022-08-01T07:22:59;583.17;;;557.73;;
13250;SDS011;6692;50.710;7.180;2022-08-01T07:25:00;607.43;;;580.63;;
13250;SDS011;6692;50.710;7.180;2022-08-01T07:27:00;564.63;;;540.53;;
13250;SDS011;6692;50.710;7.180;2022-08-01T07:29:02;566.77;;;542.67;;
13250;SDS011;6692;50.710;7.180;2022-08-01T07:31:03;552.83;;;529.10;;
13250;SDS011;6692;50.710;7.180;2022-08-01T07:33:04;601.47;;;574.90;;
13250;SDS011;6692;50.710;7.180;2022-08-01T07:35:06;601.23;;;574.50;;
13250;SDS011;6692;50.710;7.180;2022-08-01T07:37:07;624.93;;;596.80;;
13250;SDS011;6692;50.710;7.180;2022-08-01T07:39:07;585.97;;;560.20;;
13250;SDS011;6692;50.710;7.180;2022-08-01T07:41:08;588.40;;;562.50;;
13250;SDS011;6692;50.710;7.180;2022-08-01T07:43:09;609.97;;;583.07;;
13250;SDS011;6692;50.710;7.180;2022-08-01T07:45:10;603.93;;;577.23;;
13250;SDS011;6692;50.710;7.180;2022-08-01T07:47:10;593.93;;;568.10;;
13250;SDS011;6692;50.710;7.180;2022-08-01T07:49:11;567.87;;;543.37;;
13250;SDS011;6692;50.710;7.180;2022-08-01T07:51:13;538.07;;;515.20;;
13250;SDS011;6692;50.710;7.180;2022-08-01T07:53:14;526.93;;;504.93;;
13250;SDS011;6692;50.710;7.180;2022-08-01T07:55:14;550.87;;;527.37;;
13250;SDS011;6692;50.710;7.180;2022-08-01T07:57:15;547.87;;;524.27;;
13250;SDS011;6692;50.710;7.180;2022-08-01T07:59:17;567.90;;;543.33;;
13250;SDS011;6692;50.710;7.180;2022-08-01T08:01:17;563.43;;;539.27;;
13250;SDS011;6692;50.710;7.180;2022-08-01T08:03:18;569.10;;;544.53;;
13250;SDS011;6692;50.710;7.180;2022-08-01T08:05:19;549.90;;;526.60;;
13250;SDS011;6692;50.710;7.180;2022-08-01T08:07:19;558.10;;;534.23;;
13250;SDS011;6692;50.710;7.180;2022-08-01T08:09:20;555.00;;;531.43;;
13250;SDS011;6692;50.710;7.180;2022-08-01T08:11:21;535.13;;;512.00;;
13250;SDS011;6692;50.710;7.180;2022-08-01T08:13:21;538.50;;;515.73;;
13250;SDS011;6692;50.710;7.180;2022-08-01T08:15:22;501.03;;;479.97;;
13250;SDS011;6692;50.710;7.180;2022-08-01T08:17:23;517.73;;;496.03;;
13250;SDS011;6692;50.710;7.180;2022-08-01T08:19:23;528.50;;;506.20;;
13250;SDS011;6692;50.710;7.180;2022-08-01T08:21:24;541.60;;;518.93;;
13250;SDS011;6692;50.710;7.180;2022-08-01T08:23:25;528.73;;;506.27;;
13250;SDS011;6692;50.710;7.180;2022-08-01T08:25:31;514.17;;;492.77;;
13250;SDS011;6692;50.710;7.180;2022-08-01T08:27:32;474.23;;;455.30;;
13250;SDS011;6692;50.710;7.180;2022-08-01T08:29:33;541.33;;;518.93;;
13250;SDS011;6692;50.710;7.180;2022-08-01T08:31:33;533.77;;;511.50;;
13250;SDS011;6692;50.710;7.180;2022-08-01T08:33:34;493.03;;;473.13;;
13250;SDS011;6692;50.710;7.180;2022-08-01T08:35:35;522.17;;;500.80;;
13250;SDS011;6692;50.710;7.180;2022-08-01T08:37:36;542.70;;;519.60;;
13250;SDS011;6692;50.710;7.180;2022-08-01T08:39:36;545.37;;;522.03;;
13250;SDS011;6692;50.710;7.180;2022-08-01T08:41:37;493.90;;;473.50;;
13250;SDS011;6692;50.710;7.180;2022-08-01T08:43:37;522.10;;;500.30;;
13250;SDS011;6692;50.710;7.180;2022-08-01T08:45:38;489.50;;;469.53;;
13250;SDS011;6692;50.710;7.180;2022-08-01T08:47:39;480.53;;;461.23;;
13250;SDS011;6692;50.710;7.180;2022-08-01T08:49:39;501.80;;;481.13;;
13250;SDS011;6692;50.710;7.180;2022-08-01T08:51:41;440.83;;;423.33;;
13250;SDS011;6692;50.710;7.180;2022-08-01T08:53:41;442.10;;;424.63;;
13250;SDS011;6692;50.710;7.180;2022-08-01T08:55:42;421.80;;;405.17;;
13250;SDS011;6692;50.710;7.180;2022-08-01T08:57:44;390.77;;;376.00;;
13250;SDS011;6692;50.710;7.180;2022-08-01T08:59:45;418.90;;;402.47;;
13250;SDS011;6692;50.710;7.180;2022-08-01T09:01:46;441.33;;;423.93;;
13250;SDS011;6692;50.710;7.180;2022-08-01T09:03:47;426.70;;;410.00;;
13250;SDS011;6692;50.710;7.180;2022-08-01T09:05:49;445.80;;;428.33;;
13250;SDS011;6692;50.710;7.180;2022-08-01T09:07:49;442.83;;;425.40;;
13250;SDS011;6692;50.710;7.180;2022-08-01T09:09:50;428.73;;;412.10;;
13250;SDS011;6692;50.710;7.180;2022-08-01T09:11:50;458.33;;;440.23;;
13250;SDS011;6692;50.710;7.180;2022-08-01T09:16:01;398.90;;;383.73;;
13250;SDS011;6692;50.710;7.180;2022-08-01T09:18:03;410.27;;;393.90;;
13250;SDS011;6692;50.710;7.180;2022-08-01T09:20:04;393.80;;;378.63;;
13250;SDS011;6692;50.710;7.180;2022-08-01T09:22:06;446.10;;;428.27;;
13250;SDS011;6692;50.710;7.180;2022-08-01T09:26:13;371.90;;;357.80;;
13250;SDS011;6692;50.710;7.180;2022-08-01T09:28:14;402.47;;;386.93;;
13250;SDS011;6692;50.710;7.180;2022-08-01T09:30:15;445.63;;;428.13;;
13250;SDS011;6692;50.710;7.180;2022-08-01T09:32:16;401.37;;;386.10;;
13250;SDS011;6692;50.710;7.180;2022-08-01T09:34:24;463.67;;;445.47;;
13250;SDS011;6692;50.710;7.180;2022-08-01T09:36:25;431.77;;;415.00;;
13250;SDS011;6692;50.710;7.180;2022-08-01T09:38:25;432.27;;;415.33;;
13250;SDS011;6692;50.710;7.180;2022-08-01T09:40:36;429.83;;;413.23;;
13250;SDS011;6692;50.710;7.180;2022-08-01T09:42:27;407.97;;;392.17;;
13250;SDS011;6692;50.710;7.180;2022-08-01T09:44:36;355.10;;;341.83;;
13250;SDS011;6692;50.710;7.180;2022-08-01T09:46:35;458.90;;;440.77;;
13250;SDS011;6692;50.710;7.180;2022-08-01T09:48:36;1161.67;;;999.90;;
13250;SDS011;6692;50.710;7.180;2022-08-01T09:50:39;699.93;;;665.60;;
13250;SDS011;6692;50.710;7.180;2022-08-01T09:52:39;540.13;;;517.50;;
13250;SDS011;6692;50.710;7.180;2022-08-01T09:54:40;511.90;;;490.87;;
13250;SDS011;6692;50.710;7.180;2022-08-01T09:56:41;531.47;;;509.03;;
13250;SDS011;6692;50.710;7.180;2022-08-01T10:00:59;387.27;;;372.70;;
13250;SDS011;6692;50.710;7.180;2022-08-01T10:03:19;428.57;;;411.70;;
13250;SDS011;6692;50.710;7.180;2022-08-01T10:05:11;522.53;;;500.70;;
13250;SDS011;6692;50.710;7.180;2022-08-01T10:07:12;472.60;;;453.47;;
13250;SDS011;6692;50.710;7.180;2022-08-01T10:09:13;392.20;;;377.37;;
13250;SDS011;6692;50.710;7.180;2022-08-01T10:11:13;391.40;;;376.50;;
13250;SDS011;6692;50.710;7.180;2022-08-01T10:13:14;384.07;;;369.50;;
13250;SDS011;6692;50.710;7.180;2022-08-01T10:15:15;353.10;;;339.97;;
13250;SDS011;6692;50.710;7.180;2022-08-01T10:17:15;409.60;;;393.90;;
13250;SDS011;6692;50.710;7.180;2022-08-01T10:19:15;336.33;;;323.90;;
13250;SDS011;6692;50.710;7.180;2022-08-01T10:21:17;456.67;;;438.20;;
13250;SDS011;6692;50.710;7.180;2022-08-01T10:23:17;369.10;;;355.53;;
13250;SDS011;6692;50.710;7.180;2022-08-01T10:25:18;468.23;;;449.73;;
13250;SDS011;6692;50.710;7.180;2022-08-01T10:27:19;483.40;;;463.67;;
13250;SDS011;6692;50.710;7.180;2022-08-01T10:29:20;448.43;;;430.77;;
13250;SDS011;6692;50.710;7.180;2022-08-01T10:31:20;473.53;;;454.53;;
13250;SDS011;6692;50.710;7.180;2022-08-01T10:33:22;436.17;;;418.97;;
13250;SDS011;6692;50.710;7.180;2022-08-01T10:35:22;449.70;;;432.20;;
13250;SDS011;6692;50.710;7.180;2022-08-01T10:37:23;416.93;;;400.93;;
13250;SDS011;6692;50.710;7.180;2022-08-01T10:39:23;494.73;;;474.60;;
13250;SDS011;6692;50.710;7.180;2022-08-01T10:41:25;425.03;;;408.43;;
13250;SDS011;6692;50.710;7.180;2022-08-01T10:43:25;371.50;;;357.60;;
13250;SDS011;6692;50.710;7.180;2022-08-01T10:45:26;363.03;;;349.43;;
13250;SDS011;6692;50.710;7.180;2022-08-01T10:47:29;328.63;;;316.53;;
13250;SDS011;6692;50.710;7.180;2022-08-01T10:49:28;303.77;;;292.57;;
13250;SDS011;6692;50.710;7.180;2022-08-01T10:51:29;343.57;;;331.07;;
13250;SDS011;6692;50.710;7.180;2022-08-01T10:53:31;390.07;;;375.60;;
13250;SDS011;6692;50.710;7.180;2022-08-01T10:57:49;370.67;;;356.87;;
13250;SDS011;6692;50.710;7.180;2022-08-01T10:59:50;290.10;;;279.60;;
13250;SDS011;6692;50.710;7.180;2022-08-01T11:02:03;307.93;;;296.93;;
13250;SDS011;6692;50.710;7.180;2022-08-01T11:04:07;268.00;;;258.60;;
13250;SDS011;6692;50.710;7.180;2022-08-01T11:08:20;381.37;;;367.10;;
13250;SDS011;6692;50.710;7.180;2022-08-01T11:10:23;421.37;;;405.13;;
13250;SDS011;6692;50.710;7.180;2022-08-01T11:12:22;364.03;;;350.60;;
13250;SDS011;6692;50.710;7.180;2022-08-01T11:14:22;356.03;;;342.60;;
13250;SDS011;6692;50.710;7.180;2022-08-01T11:16:25;362.97;;;349.33;;
13250;SDS011;6692;50.710;7.180;2022-08-01T11:18:29;340.50;;;328.17;;
13250;SDS011;6692;50.710;7.180;2022-08-01T11:20:31;360.57;;;347.10;;
13250;SDS011;6692;50.710;7.180;2022-08-01T11:22:32;417.20;;;401.33;;
13250;SDS011;6692;50.710;7.180;2022-08-01T11:27:15;423.67;;;407.20;;
13250;SDS011;6692;50.710;7.180;2022-08-01T11:30:47;348.33;;;335.40;;
13250;SDS011;6692;50.710;7.180;2022-08-01T11:32:50;406.20;;;390.83;;
13250;SDS011;6692;50.710;7.180;2022-08-01T11:34:52;366.20;;;352.63;;
13250;SDS011;6692;50.710;7.180;2022-08-01T11:37:11;323.87;;;312.17;;
13250;SDS011;6692;50.710;7.180;2022-08-01T11:39:11;309.30;;;297.57;;
13250;SDS011;6692;50.710;7.180;2022-08-01T11:41:25;256.23;;;247.23;;
13250;SDS011;6692;50.710;7.180;2022-08-01T11:43:26;271.30;;;261.73;;
13250;SDS011;6692;50.710;7.180;2022-08-01T11:45:46;263.47;;;254.27;;
13250;SDS011;6692;50.710;7.180;2022-08-01T11:47:42;243.73;;;235.03;;
13250;SDS011;6692;50.710;7.180;2022-08-01T11:49:44;265.10;;;255.80;;
13250;SDS011;6692;50.710;7.180;2022-08-01T11:51:44;255.53;;;246.53;;
13250;SDS011;6692;50.710;7.180;2022-08-01T11:53:45;294.40;;;283.90;;
13250;SDS011;6692;50.710;7.180;2022-08-01T11:55:46;314.10;;;302.90;;
13250;SDS011;6692;50.710;7.180;2022-08-01T11:57:47;302.93;;;292.13;;
13250;SDS011;6692;50.710;7.180;2022-08-01T11:59:52;292.73;;;282.23;;